Bartlesville, OK

07:09 PM CDT del 04 Luglio 2015 (GMT -0500)
Bartlesville Municipal | | Change Station
CLOSE
Current Station
Aeroporto
Location: Bartlesville,
Altitudine: 712 ft
Stazioni meteo nelle vicinanze

Alt. 712 ft 36.77 °N, 96.01 °W | Updated 16 minutes ago

Molto nuvoloso
Molto nuvoloso
86 °F
Sembra 89 °F
N
6
Vento Variabile Vento da SSO

Oggi
Massima -- | Minima -- °F
--% Possibilità di precip.
Ieri
Massima -- | Minima -- °F
Precip. -- in
6:10 AM 8:46 PM
Gobba a levante, 89% visible
Pressione 29.88 in
Visibilità 10.0 miglia
Nuvole Sereno
Indice di calore 89 °F
Punto di rugiada 68 °F
Umidità 55%
Piovosità 0.00 in
Spessore del manto nevoso Non disponibile.
Raggi UV 2 fuori da 12
Polline 3.00 fuori da 12
Qualità dell'aria Non disponibile.
Flu Activity Non disponibile.
METAR KBVO 042353Z AUTO 20005KT 10SM CLR 30/20 A2991 RMK AO2 SLP118 T03000200 10328 20289 55010

More Conditions Fewer Conditions

Pressione 29.88 in
Visibilità 10.0 miglia
Nuvole Sereno
Indice di calore 89 °F
Punto di rugiada 68 °F
Umidità 55%
Piovosità 0.00 in
Spessore del manto nevoso Non disponibile.
Raggi UV 2 fuori da 12
Polline 3.00 fuori da 12
Qualità dell'aria Non disponibile.
Flu Activity Non disponibile.
METAR KBVO 042353Z AUTO 20005KT 10SM CLR 30/20 A2991 RMK AO2 SLP118 T03000200 10328 20289 55010

More Conditions Fewer Conditions

Nowcast | as of 6:16 PM CDT on July 4, 2015

At 6:15 PM...Doppler radars detected scattered showers and thunderstorms across far southeast Oklahoma...with additional scattered showers observed over portions of northwest Arkansas. All of this activity was moving south at around 10 mph. Through 8:15 PM...showers and thunderstorms...some of which may be strong to severe will remain possible for sections of far southeast Oklahoma...mainly along and south of a Stuart to Big Cedar line. Large hail and damaging winds will be possible...along with a period of very heavy rainfall. Frequent lightning will also be common. Scattered showers will also continue across portions of northwest Arkansas during this time where brief moderate to locally heavy downpours may occur. With these downpours may also come gusty winds of 30 to 40 mph.

×

10-Day Weather Forecast

×

Almanac

Astronomia

Jul. 04, 2015 Alba Tramonto
Ora attuale
Crepuscolo civile
Crepuscolo nautico
Crepuscolo astronomico
Luna
Estensione della luce visibile
Lunghezza del giorno
Tomorrow will be .
, % of the Moon is Illuminated

Gli estremi di oggi

State Highs State Lows

Community

WunderPhotos

Upload Photos

1,835,120 foto caricate!

WunderBlogs® & News

Nearby

Qualità dell'aria

  Qualità dell'aria Indice AQ Inquinante
Not available.

Profondità neve

Stazione Profondità Altitudine

Attività sismica

Città  Distanza Mag. Data & Ora
Minimo Magnitudo Mostrato è 2.5.

Temperature delle acque costiere

Località Temperatura

Stations

Stazioni meteo nelle vicinanze

Ubicazione della stazione Temp. Raffreddamento del vento Punto di rugiada Umidità Vento Precip. Alt. Aggiornato Tipo